Time;durP1;ratioP1;P1;durP2;ratioP2;P2;SDS_P1;SDS_P2;PMS_P1;PMS_P2;Temp;Humidity;BMP_temperature;BMP_pressure;BME280_temperature;BME280_humidity;BME280_pressure;Samples;Min_cycle;Max_cycle;Signal;HPM_P1;HPM_P2
2020/12/02 00:00:15;;;;;;;;;27.50;24.50;;;;;2.45;72.55;101615.11;456978;118;383773;-69
2020/12/02 00:01:20;;;;;;;;;28.50;23.20;;;;;2.45;72.55;101615.11;462814;117;382702;-72
2020/12/02 00:02:29;;;;;;;;;24.80;22.30;;;;;2.50;72.92;101613.22;462852;117;382724;-71
2020/12/02 00:03:34;;;;;;;;;20.70;15.80;;;;;2.49;72.73;101626.41;456852;118;380520;-71
2020/12/02 00:04:38;;;;;;;;;25.40;22.40;;;;;2.43;72.08;101613.41;463316;117;383320;-71
2020/12/02 00:05:43;;;;;;;;;27.90;24.80;;;;;2.37;73.06;101616.19;461878;117;391502;-72
2020/12/02 00:06:50;;;;;;;;;27.50;25.20;;;;;2.37;73.06;101616.19;461635;117;383820;-69
2020/12/02 00:07:56;;;;;;;;;27.90;25.60;;;;;2.42;73.49;101612.57;457126;118;387903;-70
2020/12/02 00:09:01;;;;;;;;;33.50;27.10;;;;;2.42;72.38;101611.70;461673;117;391237;-70
2020/12/02 00:10:05;;;;;;;;;34.40;28.70;;;;;2.37;72.78;101616.19;461850;117;385775;-69
2020/12/02 00:11:11;;;;;;;;;38.30;31.40;;;;;2.37;73.49;101613.56;463358;117;386063;-69
2020/12/02 00:12:14;;;;;;;;;33.00;27.50;;;;;2.37;73.49;101613.56;459713;117;390040;-70
2020/12/02 00:13:21;;;;;;;;;32.40;28.00;;;;;2.40;74.18;101621.36;461153;117;384934;-70
2020/12/02 00:14:26;;;;;;;;;31.20;24.90;;;;;2.42;72.67;101615.20;462062;117;382167;-69
2020/12/02 00:15:30;;;;;;;;;32.70;28.30;;;;;2.42;72.67;101615.20;463249;117;383575;-67
2020/12/02 00:16:34;;;;;;;;;29.70;27.70;;;;;2.45;73.59;101620.36;460797;117;384307;-68
2020/12/02 00:17:38;;;;;;;;;36.00;29.80;;;;;2.45;73.59;101620.36;462420;117;384175;-70
2020/12/02 00:18:42;;;;;;;;;29.00;23.90;;;;;2.45;72.13;101622.12;463132;117;382706;-69
2020/12/02 00:19:46;;;;;;;;;28.50;25.00;;;;;2.47;73.23;101620.30;460574;117;390038;-68
2020/12/02 00:20:50;;;;;;;;;33.20;27.70;;;;;2.47;72.40;101618.55;459648;117;384418;-68
2020/12/02 00:22:01;;;;;;;;;25.60;24.80;;;;;2.44;73.51;101623.02;460850;117;382708;-67
2020/12/02 00:23:05;;;;;;;;;32.20;25.50;;;;;2.46;72.91;101624.69;462562;117;382186;-67
2020/12/02 00:24:09;;;;;;;;;30.80;27.10;;;;;2.49;72.17;101615.90;462188;117;385926;-69
2020/12/02 00:25:12;;;;;;;;;33.40;28.10;;;;;2.49;72.17;101615.90;456928;118;382550;-70
2020/12/02 00:26:18;;;;;;;;;24.90;21.40;;;;;2.45;71.88;101617.73;462621;117;387730;-68
2020/12/02 00:27:25;;;;;;;;;31.40;26.10;;;;;2.42;71.79;101615.20;462760;117;383283;-69
2020/12/02 00:28:28;;;;;;;;;30.80;25.30;;;;;2.45;71.10;101612.48;461478;117;384880;-69
2020/12/02 00:29:32;;;;;;;;;33.50;27.80;;;;;2.45;71.10;101612.48;457326;118;384155;-69
2020/12/02 00:30:36;;;;;;;;;30.30;26.50;;;;;2.43;72.44;101616.03;460106;117;383079;-70
2020/12/02 00:31:40;;;;;;;;;31.60;25.60;;;;;2.43;72.44;101616.03;462613;117;383229;-70
2020/12/02 00:32:45;;;;;;;;;33.30;26.90;;;;;2.42;72.25;101606.45;462551;117;384862;-71
2020/12/02 00:33:49;;;;;;;;;30.30;26.10;;;;;2.42;71.53;101614.33;460732;117;384040;-70
2020/12/02 00:34:53;;;;;;;;;24.70;20.70;;;;;2.38;72.29;101608.29;457435;118;382356;-71
2020/12/02 00:35:57;;;;;;;;;33.60;26.20;;;;;2.36;72.23;101610.07;464000;117;383767;-69
2020/12/02 00:37:01;;;;;;;;;35.70;27.40;;;;;2.39;72.17;101615.27;462621;117;385954;-71
2020/12/02 00:38:05;;;;;;;;;27.90;25.60;;;;;2.39;72.17;101615.27;463584;117;383853;-69
2020/12/02 00:39:09;;;;;;;;;32.20;26.20;;;;;2.42;72.50;101612.57;461922;117;383517;-69
2020/12/02 00:40:14;;;;;;;;;36.10;28.00;;;;;2.40;72.63;101616.11;459583;117;384281;-70
2020/12/02 00:41:17;;;;;;;;;27.30;23.50;;;;;2.40;72.63;101616.11;463201;117;381833;-68
2020/12/02 00:42:21;;;;;;;;;36.20;31.30;;;;;2.40;72.95;101611.73;462641;117;385133;-68
2020/12/02 00:43:26;;;;;;;;;23.60;19.60;;;;;2.45;72.38;101612.48;460609;117;382212;-69
2020/12/02 00:44:30;;;;;;;;;28.20;25.60;;;;;2.44;71.81;101612.52;462495;117;384685;-67
2020/12/02 00:45:34;;;;;;;;;29.30;26.90;;;;;2.36;71.38;101615.33;460874;117;384004;-69
2020/12/02 00:46:38;;;;;;;;;29.90;25.90;;;;;2.32;71.91;101612.83;460142;117;384853;-68
2020/12/02 00:47:42;;;;;;;;;33.10;27.10;;;;;2.32;71.91;101612.83;461826;117;384172;-69
2020/12/02 00:48:50;;;;;;;;;29.80;26.80;;;;;2.26;72.24;101612.99;462463;117;383585;-67
2020/12/02 00:49:54;;;;;;;;;27.90;22.50;;;;;2.22;73.68;101612.20;460242;117;383400;-69
2020/12/02 00:50:59;;;;;;;;;32.00;29.30;;;;;2.29;73.12;101612.91;460753;117;384796;-67
2020/12/02 00:52:03;;;;;;;;;32.60;29.00;;;;;2.29;73.12;101612.91;463446;117;384456;-70
2020/12/02 00:53:09;;;;;;;;;34.30;29.20;;;;;2.24;73.54;101613.02;460347;117;385918;-68
2020/12/02 00:54:12;;;;;;;;;29.20;26.70;;;;;2.25;74.38;101611.25;456857;118;384928;-69
2020/12/02 00:55:17;;;;;;;;;36.90;31.90;;;;;2.29;74.03;101612.91;463656;117;384451;-67
2020/12/02 00:56:22;;;;;;;;;32.80;27.20;;;;;2.27;73.02;101614.70;457812;118;383649;-69
2020/12/02 00:57:29;;;;;;;;;40.10;34.60;;;;;2.28;72.80;101608.55;453753;120;386270;-69
2020/12/02 00:58:43;;;;;;;;;40.90;32.40;;;;;2.28;72.35;101606.80;456167;118;386854;-69
2020/12/02 00:59:49;;;;;;;;;38.40;35.10;;;;;2.28;73.24;101606.80;461293;117;386459;-71
2020/12/02 01:00:53;;;;;;;;;39.10;31.80;;;;;2.29;73.28;101602.41;459058;117;384177;-72
2020/12/02 01:02:01;;;;;;;;;33.80;30.00;;;;;2.28;72.66;101601.55;461786;117;385463;-73
2020/12/02 01:03:07;;;;;;;;;41.10;30.50;;;;;2.25;72.93;101606.01;461757;117;384685;-71
2020/12/02 01:04:14;;;;;;;;;29.60;27.10;;;;;2.25;72.93;101606.01;456027;118;384595;-71
2020/12/02 01:05:18;;;;;;;;;36.60;30.90;;;;;2.26;73.18;101603.36;456790;117;385313;-70
2020/12/02 01:06:22;;;;;;;;;30.30;27.50;;;;;2.27;73.74;101604.19;461992;117;383630;-70
2020/12/02 01:07:27;;;;;;;;;33.80;28.90;;;;;2.30;73.94;101599.73;460080;117;390819;-72
2020/12/02 01:08:31;;;;;;;;;35.90;29.10;;;;;2.30;73.94;101599.73;460979;117;383936;-71
2020/12/02 01:09:35;;;;;;;;;30.30;27.00;;;;;2.33;72.95;101606.69;455972;118;384271;-72
2020/12/02 01:10:40;;;;;;;;;35.90;28.60;;;;;2.33;72.95;101606.69;461912;117;385653;-71
2020/12/02 01:11:44;;;;;;;;;37.00;30.40;;;;;2.33;73.26;101604.06;461956;117;385612;-70
2020/12/02 01:12:49;;;;;;;;;32.50;27.90;;;;;2.33;73.68;101604.91;462793;117;383326;-70
2020/12/02 01:13:55;;;;;;;;;34.60;29.90;;;;;2.33;73.68;101604.91;459573;117;385832;-71
2020/12/02 01:14:59;;;;;;;;;33.30;28.50;;;;;2.31;72.76;101604.09;456916;117;384887;-70
2020/12/02 01:16:04;;;;;;;;;42.10;35.60;;;;;2.31;73.11;101605.84;462070;117;385835;-70
2020/12/02 01:17:08;;;;;;;;;37.40;28.40;;;;;2.27;73.85;101614.70;462078;117;385625;-72
2020/12/02 01:18:15;;;;;;;;;31.10;27.60;;;;;2.27;73.85;101614.70;461307;117;391807;-71
2020/12/02 01:19:20;;;;;;;;;38.10;30.20;;;;;2.29;72.65;101608.53;460048;117;385469;-71
2020/12/02 01:20:25;;;;;;;;;39.50;33.60;;;;;2.26;73.30;101602.49;461479;117;386090;-70
2020/12/02 01:21:32;;;;;;;;;36.70;31.90;;;;;2.25;72.31;101604.25;460381;117;386318;-72
2020/12/02 01:22:38;;;;;;;;;34.60;27.40;;;;;2.09;72.08;101574.91;456206;118;390947;-71
2020/12/02 01:23:42;;;;;;;;;34.20;29.40;;;;;2.09;72.08;101574.91;458993;116;384290;-70
2020/12/02 01:24:50;;;;;;;;;30.20;27.00;;;;;2.22;71.82;101603.46;459280;117;383775;-71
2020/12/02 01:25:53;;;;;;;;;29.80;26.40;;;;;2.22;71.82;101603.46;459377;117;391569;-72
2020/12/02 01:27:02;;;;;;;;;37.20;33.30;;;;;2.15;73.67;101628.99;461702;117;385136;-71
2020/12/02 01:28:07;;;;;;;;;35.30;27.50;;;;;2.17;73.65;101600.11;461409;117;382869;-72
2020/12/02 01:29:17;;;;;;;;;33.30;27.70;;;;;2.17;73.65;101600.11;460021;117;384714;-70
2020/12/02 01:30:22;;;;;;;;;35.60;29.30;;;;;2.19;73.33;101600.91;458723;117;384082;-70
2020/12/02 01:31:26;;;;;;;;;32.90;26.40;;;;;2.17;72.65;101600.11;461626;117;383149;-69
2020/12/02 01:32:30;;;;;;;;;35.10;26.20;;;;;2.14;73.04;101604.51;463404;117;384623;-69
2020/12/02 01:33:34;;;;;;;;;32.40;28.20;;;;;2.14;71.55;101599.27;456534;118;384875;-70
2020/12/02 01:34:38;;;;;;;;;29.20;25.90;;;;;2.13;71.47;101597.56;462624;117;382971;-70
2020/12/02 01:35:43;;;;;;;;;37.00;27.30;;;;;2.13;71.47;101597.56;462119;117;384725;-70
2020/12/02 01:37:12;;;;;;;;;39.70;29.50;;;;;2.20;71.93;101598.27;461254;117;385837;-72
2020/12/02 01:38:19;;;;;;;;;29.00;26.90;;;;;2.20;71.93;101598.27;458677;117;388062;-69
2020/12/02 01:39:22;;;;;;;;;29.80;26.60;;;;;2.17;71.76;101597.48;460793;117;386265;-69
2020/12/02 01:40:28;;;;;;;;;26.20;24.60;;;;;2.14;72.15;101591.39;458866;117;383370;-70
2020/12/02 01:41:31;;;;;;;;;33.10;23.80;;;;;2.16;71.86;101595.75;461380;117;383508;-69
2020/12/02 01:42:35;;;;;;;;;30.20;26.60;;;;;2.14;72.19;101593.14;457654;117;383044;-70
2020/12/02 01:43:39;;;;;;;;;36.60;29.50;;;;;2.14;71.77;101590.52;459250;117;385431;-69
2020/12/02 01:44:43;;;;;;;;;32.30;26.20;;;;;2.14;71.77;101590.52;462033;117;383775;-69
2020/12/02 01:45:48;;;;;;;;;35.80;30.80;;;;;2.13;71.72;101592.31;461895;117;382384;-70
2020/12/02 01:46:59;;;;;;;;;36.80;29.00;;;;;2.13;71.63;101589.69;453042;120;384198;-70
2020/12/02 01:48:18;;;;;;;;;36.30;31.20;;;;;2.17;72.40;101589.61;440070;123;390535;-69
2020/12/02 01:49:25;;;;;;;;;36.60;28.10;;;;;2.20;74.08;101589.53;445706;122;384445;-68
2020/12/02 01:50:32;;;;;;;;;33.40;31.20;;;;;2.20;74.08;101589.53;460998;117;390190;-68
2020/12/02 01:52:01;;;;;;;;;35.00;29.80;;;;;2.03;71.69;101566.33;456247;118;383237;-69
2020/12/02 01:53:09;;;;;;;;;32.40;28.10;;;;;2.22;71.63;101595.59;459567;117;384665;-70
2020/12/02 01:54:14;;;;;;;;;32.70;24.20;;;;;2.20;71.29;101595.64;459945;117;382751;-70
2020/12/02 01:55:22;;;;;;;;;37.30;30.70;;;;;2.13;71.78;101592.31;462463;117;384953;-71
2020/12/02 01:56:30;;;;;;;;;26.20;22.70;;;;;2.13;71.78;101592.31;462395;117;381813;-67
2020/12/02 01:57:36;;;;;;;;;36.00;28.90;;;;;2.16;71.16;101587.88;458977;117;384451;-69
2020/12/02 01:58:44;;;;;;;;;33.90;27.30;;;;;2.17;71.42;101592.23;461937;117;383398;-69
2020/12/02 01:59:55;;;;;;;;;41.00;28.20;;;;;2.13;71.17;101589.69;459789;117;385483;-68
2020/12/02 02:01:05;;;;;;;;;35.40;30.10;;;;;2.12;71.55;101589.70;458713;117;383051;-68
2020/12/02 02:02:12;;;;;;;;;38.50;32.00;;;;;2.12;71.79;101595.83;461617;117;385604;-68
2020/12/02 02:03:16;;;;;;;;;33.10;28.20;;;;;2.12;71.79;101595.83;456328;118;390314;-70
2020/12/02 02:04:20;;;;;;;;;29.60;27.00;;;;;2.11;71.72;101594.09;462455;117;385562;-69
2020/12/02 02:05:28;;;;;;;;;31.10;27.70;;;;;2.14;71.78;101601.89;462076;117;382830;-68
2020/12/02 02:06:39;;;;;;;;;34.60;28.20;;;;;2.16;71.98;101601.00;455303;118;383999;-69
2020/12/02 02:07:43;;;;;;;;;35.60;28.40;;;;;2.20;71.71;101605.28;456898;117;383220;-69
2020/12/02 02:08:48;;;;;;;;;37.30;25.80;;;;;2.20;71.71;101605.28;459906;117;384290;-70
2020/12/02 02:09:52;;;;;;;;;36.50;30.30;;;;;2.19;71.33;101600.91;458616;117;382628;-67
2020/12/02 02:10:56;;;;;;;;;28.80;22.40;;;;;2.19;71.33;101600.91;456786;118;384282;-68
2020/12/02 02:12:16;;;;;;;;;38.50;28.60;;;;;2.17;71.79;101597.48;462631;117;384244;-68
2020/12/02 02:14:16;;;;;;;;;31.20;28.70;;;;;2.22;72.09;101601.70;459419;117;391036;-68
2020/12/02 02:15:29;;;;;;;;;35.30;31.70;;;;;2.30;71.91;101606.77;457272;117;391023;-71
2020/12/02 02:16:38;;;;;;;;;42.90;37.20;;;;;2.25;71.42;101604.25;456091;118;385845;-68
2020/12/02 02:17:42;;;;;;;;;46.70;37.30;;;;;2.25;71.42;101604.25;461743;117;386434;-69
2020/12/02 02:18:46;;;;;;;;;35.40;23.70;;;;;2.24;72.02;101601.65;462483;117;384837;-68
2020/12/02 02:19:49;;;;;;;;;39.10;32.00;;;;;2.22;72.37;101606.09;461143;117;384695;-68
2020/12/02 02:20:55;;;;;;;;;44.70;36.10;;;;;2.21;71.71;101607.84;459792;117;385598;-68
2020/12/02 02:21:59;;;;;;;;;40.50;31.40;;;;;2.21;71.71;101607.84;461212;117;392368;-67
2020/12/02 02:23:02;;;;;;;;;41.60;38.00;;;;;2.24;71.57;101612.14;462327;117;384392;-66
2020/12/02 02:24:07;;;;;;;;;43.90;36.90;;;;;2.22;72.01;101608.71;462502;117;384710;-73
2020/12/02 02:25:11;;;;;;;;;44.00;35.10;;;;;2.22;72.01;101608.71;459593;117;386613;-71
2020/12/02 02:26:41;;;;;;;;;35.80;32.80;;;;;2.18;72.65;101605.30;459327;117;384524;-70
2020/12/02 02:27:44;;;;;;;;;36.40;32.00;;;;;2.23;71.88;101599.95;461107;117;384434;-69
2020/12/02 02:28:50;;;;;;;;;37.60;33.50;;;;;2.23;71.88;101599.95;462085;117;384735;-73
2020/12/02 02:29:54;;;;;;;;;35.40;31.60;;;;;2.23;71.89;101599.95;458099;117;384775;-68
2020/12/02 02:30:58;;;;;;;;;28.60;26.10;;;;;2.26;71.48;101602.49;462688;117;388984;-70
2020/12/02 02:32:04;;;;;;;;;40.30;35.60;;;;;2.23;72.20;101600.81;460524;117;385885;-71
2020/12/02 02:33:08;;;;;;;;;35.90;28.20;;;;;2.23;72.20;101600.81;456044;118;392122;-70
2020/12/02 02:34:12;;;;;;;;;40.10;35.80;;;;;2.25;72.81;101612.13;459538;117;385301;-69
2020/12/02 02:35:16;;;;;;;;;49.20;37.90;;;;;2.25;72.81;101612.13;459841;117;386419;-70
2020/12/02 02:36:23;;;;;;;;;52.30;39.20;;;;;2.25;72.49;101611.25;459480;117;387300;-70
2020/12/02 02:37:29;;;;;;;;;41.60;37.30;;;;;2.24;72.37;101606.90;461921;117;385493;-69
2020/12/02 02:38:33;;;;;;;;;50.30;41.90;;;;;2.22;72.26;101606.95;459895;117;385491;-70
2020/12/02 02:39:37;;;;;;;;;48.00;41.00;;;;;2.22;72.26;101606.95;463123;117;385909;-69
2020/12/02 02:40:41;;;;;;;;;44.30;35.50;;;;;2.24;72.89;101605.14;462206;117;385992;-67
2020/12/02 02:41:44;;;;;;;;;53.90;41.70;;;;;2.25;72.58;101600.76;461981;117;387580;-66
2020/12/02 02:42:49;;;;;;;;;48.70;42.60;;;;;2.23;71.73;101603.44;462577;117;387137;-68
2020/12/02 02:43:53;;;;;;;;;51.00;42.20;;;;;2.22;71.89;101601.70;460550;117;386687;-68
2020/12/02 02:44:57;;;;;;;;;48.10;41.00;;;;;2.22;73.28;101608.71;456509;118;386366;-70
2020/12/02 02:46:01;;;;;;;;;46.70;41.00;;;;;2.22;73.20;101616.59;461706;117;385085;-67
2020/12/02 02:47:04;;;;;;;;;46.20;34.50;;;;;2.22;73.20;101616.59;461947;117;386452;-67
2020/12/02 02:48:08;;;;;;;;;38.00;33.60;;;;;2.25;72.73;101612.13;462244;117;385796;-68
2020/12/02 02:49:12;;;;;;;;;42.00;37.40;;;;;2.25;72.73;101612.13;461341;117;392118;-69
2020/12/02 02:50:18;;;;;;;;;42.20;37.80;;;;;2.21;71.55;101612.23;456627;118;385308;-68
2020/12/02 02:51:21;;;;;;;;;37.30;31.20;;;;;2.21;71.55;101612.23;462088;117;384071;-66
2020/12/02 02:52:25;;;;;;;;;35.70;31.70;;;;;2.14;71.70;101608.89;459476;117;385560;-70
2020/12/02 02:53:29;;;;;;;;;43.40;37.60;;;;;2.14;71.70;101608.89;462664;117;386090;-69
2020/12/02 02:54:33;;;;;;;;;40.80;36.90;;;;;2.12;72.93;101605.45;461376;117;384318;-69
2020/12/02 02:55:36;;;;;;;;;45.20;38.60;;;;;2.13;72.22;101608.05;459572;117;386286;-69
2020/12/02 02:56:42;;;;;;;;;44.10;36.50;;;;;2.16;72.07;101608.87;461067;117;385050;-70
2020/12/02 02:57:46;;;;;;;;;45.10;33.70;;;;;2.20;72.88;101613.15;461881;117;386751;-70
2020/12/02 02:58:49;;;;;;;;;34.80;27.40;;;;;2.26;74.19;101612.99;462387;117;383625;-69
2020/12/02 02:59:53;;;;;;;;;40.70;32.80;;;;;2.26;72.60;101613.86;461830;117;385722;-70
2020/12/02 03:00:58;;;;;;;;;45.50;34.20;;;;;2.27;71.74;101609.45;458111;117;386384;-68
2020/12/02 03:02:02;;;;;;;;;44.50;35.60;;;;;2.25;71.56;101616.51;460309;117;386037;-70
2020/12/02 03:03:06;;;;;;;;;43.40;37.70;;;;;2.25;71.56;101616.51;459992;117;385600;-70
2020/12/02 03:04:10;;;;;;;;;41.80;37.70;;;;;2.24;72.74;101614.77;462400;117;385666;-72
2020/12/02 03:05:14;;;;;;;;;50.50;37.90;;;;;2.24;72.74;101614.77;459824;117;387406;-69
2020/12/02 03:06:18;;;;;;;;;43.60;36.40;;;;;2.26;72.76;101612.99;461456;117;385052;-71
2020/12/02 03:07:22;;;;;;;;;54.80;40.30;;;;;2.33;71.61;101619.81;461718;117;388429;-70
2020/12/02 03:08:26;;;;;;;;;45.50;38.90;;;;;2.33;71.74;101610.16;462003;117;385529;-71
2020/12/02 03:09:30;;;;;;;;;49.00;41.70;;;;;2.33;71.74;101610.16;459522;117;392439;-71
2020/12/02 03:10:36;;;;;;;;;44.10;37.90;;;;;2.36;71.14;101604.82;458799;117;384712;-69
2020/12/02 03:11:39;;;;;;;;;43.20;39.30;;;;;2.38;72.23;101610.05;462267;117;385469;-70
2020/12/02 03:12:44;;;;;;;;;41.70;38.90;;;;;2.37;71.83;101616.19;462168;117;385039;-69
2020/12/02 03:13:48;;;;;;;;;54.30;40.80;;;;;2.37;71.20;101616.19;460579;117;388305;-69
2020/12/02 03:14:52;;;;;;;;;43.50;33.20;;;;;2.37;71.20;101616.19;463459;117;387596;-69
2020/12/02 03:15:56;;;;;;;;;43.20;36.70;;;;;2.34;70.48;101622.39;459787;117;386600;-68
2020/12/02 03:17:00;;;;;;;;;36.40;32.90;;;;;2.34;70.48;101622.39;461853;117;390966;-71
2020/12/02 03:18:03;;;;;;;;;37.60;35.30;;;;;2.34;70.29;101611.02;461675;117;386588;-73
2020/12/02 03:19:11;;;;;;;;;33.20;29.30;;;;;2.26;70.84;101612.99;462526;117;385330;-69
2020/12/02 03:20:17;;;;;;;;;41.90;36.00;;;;;2.31;70.09;101611.97;461936;117;385310;-69
2020/12/02 03:21:21;;;;;;;;;32.90;29.90;;;;;2.31;70.09;101611.97;461912;117;390476;-71
2020/12/02 03:22:25;;;;;;;;;41.20;35.00;;;;;2.34;70.44;101622.39;461662;117;386203;-69
2020/12/02 03:23:29;;;;;;;;;37.40;32.30;;;;;2.30;69.96;101615.48;462669;117;384819;-70
2020/12/02 03:24:33;;;;;;;;;40.30;30.70;;;;;2.30;69.96;101615.48;459643;117;385218;-69
2020/12/02 03:25:36;;;;;;;;;36.80;31.60;;;;;2.26;69.88;101618.24;455737;118;384847;-69
2020/12/02 03:26:40;;;;;;;;;38.80;32.80;;;;;2.26;70.52;101618.24;459398;117;384951;-70
2020/12/02 03:27:44;;;;;;;;;46.60;37.20;;;;;2.27;70.50;101614.70;460440;117;386668;-68
2020/12/02 03:28:48;;;;;;;;;35.90;31.80;;;;;2.27;70.50;101614.70;462095;117;386051;-70
2020/12/02 03:29:52;;;;;;;;;40.70;36.80;;;;;2.25;70.52;101619.13;458654;117;385124;-69
2020/12/02 03:30:58;;;;;;;;;43.40;35.40;;;;;2.25;70.52;101619.13;456600;118;385400;-70
2020/12/02 03:32:02;;;;;;;;;42.50;37.80;;;;;2.24;70.28;101625.27;461646;117;384353;-68
2020/12/02 03:33:06;;;;;;;;;41.70;37.20;;;;;2.24;70.28;101625.27;463062;117;385866;-68
2020/12/02 03:34:11;;;;;;;;;46.00;35.00;;;;;2.25;70.40;101630.50;462122;117;385620;-69
2020/12/02 03:35:15;;;;;;;;;44.70;41.30;;;;;2.31;70.43;101629.47;459142;117;386278;-69
2020/12/02 03:36:20;;;;;;;;;47.00;40.60;;;;;2.31;70.43;101629.47;462116;117;386267;-71
2020/12/02 03:37:24;;;;;;;;;43.70;37.20;;;;;2.32;70.31;101618.09;461849;117;385816;-71
2020/12/02 03:38:28;;;;;;;;;44.20;36.50;;;;;2.33;70.95;101628.53;459901;117;387217;-71
2020/12/02 03:39:31;;;;;;;;;53.20;41.30;;;;;2.36;70.89;101622.36;461389;117;395115;-72
2020/12/02 03:40:36;;;;;;;;;38.80;34.00;;;;;2.36;70.89;101622.36;456141;118;384517;-72
2020/12/02 03:41:39;;;;;;;;;46.10;33.20;;;;;2.42;71.47;101625.70;462989;117;387594;-71
2020/12/02 03:42:43;;;;;;;;;41.20;36.20;;;;;2.42;71.47;101625.70;461652;117;385156;-70
2020/12/02 03:43:47;;;;;;;;;42.30;38.60;;;;;2.45;70.97;101625.62;460056;117;384997;-72
2020/12/02 03:44:51;;;;;;;;;53.30;40.10;;;;;2.40;71.11;101627.48;442627;123;385379;-72
2020/12/02 03:45:55;;;;;;;;;40.10;32.60;;;;;2.34;71.37;101627.64;458572;117;385483;-72
2020/12/02 03:46:58;;;;;;;;;46.80;35.40;;;;;2.30;71.52;101636.48;461501;117;386540;-71
2020/12/02 03:48:02;;;;;;;;;35.40;31.30;;;;;2.26;71.41;101639.23;456764;119;387544;-70
2020/12/02 03:49:06;;;;;;;;;49.50;42.40;;;;;2.26;71.41;101639.23;462439;117;385182;-71
2020/12/02 03:50:11;;;;;;;;;81.20;60.50;;;;;2.28;71.02;101640.05;461194;117;388790;-70
2020/12/02 03:51:14;;;;;;;;;47.20;40.20;;;;;2.28;71.02;101640.05;459071;117;384354;-71
2020/12/02 03:52:18;;;;;;;;;51.20;40.80;;;;;2.21;70.47;101641.97;462605;117;388887;-72
2020/12/02 03:53:22;;;;;;;;;49.80;41.40;;;;;2.24;70.77;101641.89;460480;117;387519;-71
2020/12/02 03:54:26;;;;;;;;;47.50;38.10;;;;;2.24;70.77;101641.89;442456;123;387164;-72
2020/12/02 03:55:30;;;;;;;;;43.80;37.60;;;;;2.17;70.30;101642.09;457801;118;391397;-72
2020/12/02 03:56:35;;;;;;;;;45.60;38.70;;;;;2.17;70.46;101639.47;456247;118;385855;-69
2020/12/02 03:57:39;;;;;;;;;42.40;35.90;;;;;2.20;70.42;101639.39;462518;117;391574;-69
2020/12/02 03:58:42;;;;;;;;;40.20;31.30;;;;;2.18;69.83;101644.66;457391;119;385422;-68
2020/12/02 03:59:46;;;;;;;;;47.20;39.40;;;;;2.18;69.83;101644.66;458750;117;385573;-68
2020/12/02 04:00:51;;;;;;;;;48.20;41.50;;;;;2.14;69.99;101641.25;461981;117;386028;-69
2020/12/02 04:01:55;;;;;;;;;45.70;40.20;;;;;2.15;72.05;101647.37;458972;117;386361;-71
2020/12/02 04:02:59;;;;;;;;;46.40;36.90;;;;;2.21;70.70;101646.34;460659;117;386050;-69
2020/12/02 04:04:02;;;;;;;;;36.10;31.70;;;;;2.21;70.70;101646.34;461676;117;383861;-71
2020/12/02 04:05:06;;;;;;;;;48.00;38.20;;;;;2.17;69.47;101644.72;458670;117;385321;-68
2020/12/02 04:06:11;;;;;;;;;39.50;35.40;;;;;2.17;69.47;101644.72;458204;117;382970;-70
2020/12/02 04:07:15;;;;;;;;;52.10;40.60;;;;;2.12;70.42;101648.31;458884;117;387112;-69
2020/12/02 04:08:19;;;;;;;;;49.80;41.50;;;;;2.10;70.17;101644.88;458418;117;385665;-75
2020/12/02 04:09:23;;;;;;;;;47.20;39.90;;;;;2.11;70.20;101650.95;458551;117;385079;-73
2020/12/02 04:10:27;;;;;;;;;43.30;37.00;;;;;2.11;70.20;101650.95;458678;117;385844;-77
2020/12/02 04:11:31;;;;;;;;;45.30;40.70;;;;;2.08;69.95;101657.14;462243;117;392957;-78
2020/12/02 04:12:35;;;;;;;;;48.40;35.40;;;;;2.08;69.95;101657.14;454904;119;387735;-76
2020/12/02 04:13:39;;;;;;;;;36.30;29.20;;;;;1.97;70.10;101653.93;456755;119;384306;-76
2020/12/02 04:14:43;;;;;;;;;43.50;36.60;;;;;2.02;70.64;101656.42;459885;117;388030;-76
2020/12/02 04:15:46;;;;;;;;;41.30;35.70;;;;;2.03;69.85;101645.91;459923;117;386432;-75
2020/12/02 04:16:51;;;;;;;;;42.00;35.60;;;;;2.03;69.85;101645.91;461212;117;385042;-77
2020/12/02 04:17:55;;;;;;;;;45.60;39.90;;;;;1.93;69.48;101662.77;455451;119;386024;-77
2020/12/02 04:18:59;;;;;;;;;42.00;32.80;;;;;1.94;70.63;101656.63;461641;117;385602;-73
2020/12/02 04:20:04;;;;;;;;;43.40;35.40;;;;;1.96;70.05;101652.19;460109;117;394710;-73
2020/12/02 04:21:08;;;;;;;;;44.00;36.00;;;;;1.99;70.17;101651.25;458148;117;386107;-75
2020/12/02 04:22:12;;;;;;;;;48.10;40.70;;;;;2.04;70.00;101654.66;439463;123;384270;-74
2020/12/02 04:23:15;;;;;;;;;45.50;38.20;;;;;2.04;70.00;101654.66;455480;119;385499;-72
2020/12/02 04:24:19;;;;;;;;;45.30;39.20;;;;;1.98;70.43;101665.26;458841;117;386779;-72
2020/12/02 04:25:24;;;;;;;;;50.80;41.80;;;;;1.97;70.92;101659.17;457114;118;390473;-72
2020/12/02 04:26:28;;;;;;;;;46.80;38.90;;;;;1.96;70.21;101662.69;459931;117;385672;-69
2020/12/02 04:27:32;;;;;;;;;49.40;40.40;;;;;1.94;70.03;101667.13;460034;117;385801;-70
2020/12/02 04:28:36;;;;;;;;;40.50;38.70;;;;;1.94;70.03;101667.13;461482;117;390322;-70
2020/12/02 04:29:40;;;;;;;;;40.80;36.10;;;;;1.98;71.30;101657.39;461946;117;385898;-69
2020/12/02 04:30:45;;;;;;;;;44.90;34.30;;;;;1.99;71.22;101659.12;461197;117;385405;-70
2020/12/02 04:31:48;;;;;;;;;38.90;33.30;;;;;2.00;70.90;101656.48;461021;117;392570;-69
2020/12/02 04:32:52;;;;;;;;;42.40;38.50;;;;;2.05;72.09;101659.84;462331;117;386947;-69
2020/12/02 04:33:56;;;;;;;;;51.30;44.00;;;;;2.09;71.45;101655.39;455641;119;386775;-69
2020/12/02 04:35:02;;;;;;;;;49.00;41.80;;;;;2.14;70.91;101653.50;461651;117;385827;-68
2020/12/02 04:36:07;;;;;;;;;44.10;36.30;;;;;2.14;71.38;101654.37;461735;117;384966;-68
2020/12/02 04:37:11;;;;;;;;;50.20;38.40;;;;;2.17;71.18;101649.97;458753;117;386129;-68
2020/12/02 04:38:15;;;;;;;;;50.50;36.20;;;;;2.21;71.47;101651.59;459015;117;387509;-68
2020/12/02 04:39:19;;;;;;;;;50.30;39.70;;;;;2.24;70.66;101646.27;461144;117;385757;-68
2020/12/02 04:40:27;;;;;;;;;53.00;37.60;;;;;2.29;70.29;101649.66;460392;117;386643;-70
2020/12/02 04:41:31;;;;;;;;;45.20;37.10;;;;;2.32;70.92;101644.33;459028;117;385673;-68
2020/12/02 04:42:37;;;;;;;;;52.90;41.30;;;;;2.35;70.06;101639.00;454243;119;394332;-69
2020/12/02 04:43:42;;;;;;;;;45.80;37.30;;;;;2.34;70.32;101647.77;458350;117;384948;-70
2020/12/02 04:44:47;;;;;;;;;39.70;30.70;;;;;2.29;69.79;101645.28;461536;117;386437;-68
2020/12/02 04:45:51;;;;;;;;;48.10;37.80;;;;;2.29;69.79;101645.28;461996;117;385468;-69
2020/12/02 04:46:56;;;;;;;;;50.50;43.10;;;;;2.28;70.93;101640.92;458826;117;386484;-71
2020/12/02 04:48:01;;;;;;;;;54.30;44.30;;;;;2.29;70.78;101640.03;461455;117;384959;-67
2020/12/02 04:49:11;;;;;;;;;46.50;36.80;;;;;2.29;70.78;101640.03;459837;117;385092;-69
2020/12/02 04:50:18;;;;;;;;;47.00;38.40;;;;;2.32;71.23;101646.95;455393;119;386201;-70
2020/12/02 04:51:24;;;;;;;;;47.40;40.80;;;;;2.32;71.23;101646.95;461286;117;385719;-67
2020/12/02 04:52:28;;;;;;;;;44.40;38.80;;;;;2.31;70.58;101648.72;461726;117;391349;-70
2020/12/02 04:53:32;;;;;;;;;45.30;34.90;;;;;2.28;70.03;101648.80;460858;117;387167;-71
2020/12/02 04:54:35;;;;;;;;;46.00;35.80;;;;;2.24;70.13;101662.02;454894;119;386734;-70
2020/12/02 04:55:39;;;;;;;;;50.80;40.40;;;;;2.24;70.13;101662.02;458898;117;387740;-70
2020/12/02 04:56:46;;;;;;;;;49.50;40.90;;;;;2.20;70.05;101663.02;458151;117;385479;-68